Time;durP1;ratioP1;P1;durP2;ratioP2;P2;SDS_P1;SDS_P2;PMS_P1;PMS_P2;Temp;Humidity;BMP_temperature;BMP_pressure;BME280_temperature;BME280_humidity;BME280_pressure;Samples;Min_cycle;Max_cycle;Signal;HPM_P1;HPM_P2
2022/09/28 00:02:18;;;;;;;3.70;2.70;;;;;;;10.76;75.77;98447.41;5079479;28;20809;-46
2022/09/28 00:04:43;;;;;;;4.28;2.88;;;;;;;10.75;75.75;98448.34;5069517;28;20036;-45
2022/09/28 00:07:09;;;;;;;2.83;2.45;;;;;;;10.73;75.81;98447.56;5051100;28;20040;-46
2022/09/28 00:09:35;;;;;;;4.15;2.80;;;;;;;10.75;75.70;98450.09;5069263;28;20040;-46
2022/09/28 00:12:01;;;;;;;4.35;3.00;;;;;;;10.73;75.77;98449.34;5069195;28;20040;-46
2022/09/28 00:14:27;;;;;;;4.25;2.83;;;;;;;10.74;76.48;98446.66;5069024;28;20051;-47
2022/09/28 00:16:52;;;;;;;4.38;3.25;;;;;;;10.73;76.25;98431.97;5051213;28;20041;-47
2022/09/28 00:19:18;;;;;;;4.60;3.30;;;;;;;10.74;76.33;98435.41;5089005;28;20461;-51
2022/09/28 00:21:44;;;;;;;4.05;3.10;;;;;;;10.74;75.33;98435.41;5077245;28;20037;-46
2022/09/28 00:24:15;;;;;;;4.50;3.22;;;;;;;10.71;75.64;98420.00;5069007;28;20542;-49
2022/09/28 00:27:01;;;;;;;6.72;3.20;;;;;;;10.70;75.62;98423.50;5051569;28;20424;-45
2022/09/28 00:29:35;;;;;;;2.72;2.30;;;;;;;10.67;75.96;98419.34;5051280;28;20207;-45
2022/09/28 00:32:10;;;;;;;4.05;2.90;;;;;;;10.68;75.73;98414.97;5053566;28;20033;-47
2022/09/28 00:34:40;;;;;;;3.88;2.40;;;;;;;10.70;75.51;98410.53;5085782;28;20051;-48
2022/09/28 00:37:07;;;;;;;;;;;;;;;10.71;76.32;98407.84;5070162;28;20504;-46
2022/09/28 00:39:34;;;;;;;3.60;2.60;;;;;;;10.69;76.12;98406.25;5077965;28;19974;-46
2022/09/28 00:42:02;;;;;;;5.38;3.28;;;;;;;10.69;75.79;98396.69;5070073;28;20063;-45
2022/09/28 00:44:38;;;;;;;5.47;2.70;;;;;;;10.68;75.92;98402.00;5069832;28;20044;-47
2022/09/28 00:47:12;;;;;;;5.03;2.70;;;;;;;10.67;75.94;98397.72;5068066;28;20050;-44
2022/09/28 00:49:58;;;;;;;4.13;2.47;;;;;;;10.63;76.05;98387.47;5063834;28;20436;-46
2022/09/28 00:52:37;;;;;;;3.17;2.50;;;;;;;10.63;76.08;98387.47;5034179;28;20047;-47
2022/09/28 00:55:07;;;;;;;3.50;2.55;;;;;;;10.44;76.75;98345.22;5034197;28;20419;-44
2022/09/28 00:57:33;;;;;;;4.53;2.72;;;;;;;10.64;76.71;98385.69;5068733;28;20044;-46
2022/09/28 01:00:00;;;;;;;3.38;2.60;;;;;;;10.43;77.24;98337.50;5035114;28;20040;-44
2022/09/28 01:02:25;;;;;;;3.72;2.38;;;;;;;10.57;77.62;98372.19;5052707;28;20052;-46
2022/09/28 01:04:51;;;;;;;5.03;2.63;;;;;;;10.55;77.93;98363.66;5072248;28;20123;-45
2022/09/28 01:07:17;;;;;;;3.63;2.40;;;;;;;10.37;78.50;98330.06;5074283;28;20048;-48
2022/09/28 01:09:44;;;;;;;4.55;2.70;;;;;;;10.56;78.99;98347.16;5066780;28;20067;-45
2022/09/28 01:12:10;;;;;;;3.40;2.60;;;;;;;10.56;78.45;98354.13;5054574;28;20044;-48
2022/09/28 01:14:38;;;;;;;4.03;2.53;;;;;;;10.54;79.02;98353.34;5054236;28;20044;-45
2022/09/28 01:17:14;;;;;;;4.07;2.85;;;;;;;10.51;78.83;98350.94;5054108;28;20536;-46
2022/09/28 01:20:04;;;;;;;5.43;2.72;;;;;;;10.51;78.45;98346.59;5037170;28;20048;-45
2022/09/28 01:22:34;;;;;;;3.30;2.28;;;;;;;10.49;78.47;98351.00;5053834;28;20051;-50
2022/09/28 01:25:22;;;;;;;4.10;2.40;;;;;;;10.46;78.08;98333.00;5089784;28;20043;-50
2022/09/28 01:27:57;;;;;;;4.15;2.45;;;;;;;10.44;78.38;98344.38;5072838;28;20052;-47
2022/09/28 01:30:23;;;;;;;3.40;2.22;;;;;;;10.43;78.11;98324.53;5037397;28;20127;-46
2022/09/28 01:33:21;;;;;;;2.85;2.10;;;;;;;10.42;78.83;98328.03;5055066;28;20060;-47
2022/09/28 01:35:52;;;;;;;3.80;2.08;;;;;;;10.41;78.56;98323.78;5056656;28;20047;-44
2022/09/28 01:38:28;;;;;;;3.38;2.35;;;;;;;10.40;78.62;98322.94;5071467;28;20479;-46
2022/09/28 01:40:58;;;;;;;3.53;2.33;;;;;;;10.42;78.98;98331.47;5053622;28;20099;-45
2022/09/28 01:43:26;;;;;;;3.85;2.50;;;;;;;10.39;79.50;98323.88;5037187;28;20045;-48
2022/09/28 01:45:53;;;;;;;3.93;2.50;;;;;;;10.41;79.33;98323.78;5070395;28;20048;-48
2022/09/28 01:48:34;;;;;;;3.92;2.40;;;;;;;10.41;79.58;98319.44;5060534;28;20289;-45
2022/09/28 01:51:04;;;;;;;4.00;2.30;;;;;;;10.40;79.31;98314.31;5072889;28;20090;-47
2022/09/28 01:53:37;;;;;;;2.67;2.05;;;;;;;10.38;79.67;98319.59;5053782;28;20033;-45
2022/09/28 01:56:27;;;;;;;3.20;2.40;;;;;;;10.34;79.55;98317.25;5037085;28;20056;-45
2022/09/28 01:59:12;;;;;;;5.50;2.83;;;;;;;10.34;80.14;98309.47;5045475;28;20628;-50
2022/09/28 02:01:45;;;;;;;3.22;2.20;;;;;;;10.29;79.82;98293.28;5053559;28;20076;-46
2022/09/28 02:04:15;;;;;;;3.00;2.03;;;;;;;10.34;79.69;98299.06;5048971;28;20112;-48
2022/09/28 02:06:49;;;;;;;4.03;2.20;;;;;;;10.35;80.13;98296.38;5055886;28;20047;-48
2022/09/28 02:09:22;;;;;;;3.45;1.90;;;;;;;10.35;80.34;98290.34;5053345;28;20075;-46
2022/09/28 02:11:53;;;;;;;2.50;2.03;;;;;;;10.34;79.82;98283.47;5053278;28;20040;-49
2022/09/28 02:14:20;;;;;;;2.58;2.00;;;;;;;10.34;80.64;98281.72;5036570;28;20412;-44
2022/09/28 02:16:50;;;;;;;3.00;2.25;;;;;;;10.32;80.51;98282.72;5053439;28;20143;-49
2022/09/28 02:19:26;;;;;;;3.22;2.00;;;;;;;10.31;80.49;98274.06;5054645;28;20037;-45
2022/09/28 02:21:57;;;;;;;2.35;2.00;;;;;;;10.32;80.23;98270.56;5052991;28;20496;-50
2022/09/28 02:24:34;;;;;;;3.33;2.05;;;;;;;10.31;80.75;98268.88;5036562;28;20137;-44
2022/09/28 02:27:12;;;;;;;3.80;2.08;;;;;;;10.34;80.70;98254.91;5071865;28;20039;-48
2022/09/28 02:29:39;;;;;;;4.15;2.15;;;;;;;10.33;80.43;98268.81;5073205;28;20044;-47
2022/09/28 02:32:05;;;;;;;2.65;2.25;;;;;;;10.32;80.51;98259.34;5090852;28;20051;-47
2022/09/28 02:34:32;;;;;;;3.15;2.13;;;;;;;10.16;80.73;98228.19;5053249;28;20122;-45
2022/09/28 02:36:58;;;;;;;6.03;2.55;;;;;;;10.13;80.83;98220.56;5056241;28;20052;-47
2022/09/28 02:39:25;;;;;;;3.08;2.35;;;;;;;10.37;80.92;98258.16;5052467;28;20048;-45
2022/09/28 02:42:24;;;;;;;3.83;2.28;;;;;;;10.40;81.61;98249.38;5052642;28;20139;-45
2022/09/28 02:45:01;;;;;;;3.80;2.28;;;;;;;10.38;80.88;98251.19;5031715;28;20043;-45
2022/09/28 02:47:59;;;;;;;3.20;2.40;;;;;;;10.40;80.97;98233.78;5053098;28;20040;-46
2022/09/28 02:50:54;;;;;;;3.15;2.13;;;;;;;10.37;80.93;98228.75;5068435;28;20090;-49
2022/09/28 02:53:29;;;;;;;3.08;2.33;;;;;;;10.34;81.25;98240.16;5071570;28;20044;-46
2022/09/28 02:56:09;;;;;;;5.28;2.33;;;;;;;10.34;81.40;98242.75;5052395;28;20040;-47
2022/09/28 02:58:44;;;;;;;3.38;2.20;;;;;;;10.36;81.83;98235.72;5052411;28;20056;-47
2022/09/28 03:01:39;;;;;;;2.58;2.20;;;;;;;10.35;81.85;98225.41;5052047;28;20040;-45
2022/09/28 03:04:33;;;;;;;6.20;4.32;;;;;;;10.34;81.49;98221.13;5036032;28;20056;-48
2022/09/28 03:07:02;;;;;;;3.30;3.00;;;;;;;10.35;81.77;98218.47;5035597;28;20396;-50
2022/09/28 03:09:48;;;;;;;3.70;2.85;;;;;;;10.31;81.58;98216.94;5052117;28;20495;-45
2022/09/28 03:12:14;;;;;;;3.88;2.17;;;;;;;10.32;81.90;98225.56;5053784;28;20424;-45
2022/09/28 03:14:40;;;;;;;3.25;2.20;;;;;;;10.31;81.94;98227.31;5055563;28;20066;-44
2022/09/28 03:17:07;;;;;;;2.58;2.10;;;;;;;10.33;81.35;98228.09;5051569;28;20037;-45
2022/09/28 03:19:33;;;;;;;6.55;3.47;;;;;;;10.36;81.66;98224.50;5060040;28;20065;-45
2022/09/28 03:21:59;;;;;;;2.85;2.22;;;;;;;10.37;82.05;98210.56;5068426;28;20043;-47
2022/09/28 03:24:25;;;;;;;3.03;2.70;;;;;;;10.37;81.62;98219.19;5035358;28;20048;-48
2022/09/28 03:26:51;;;;;;;2.55;2.08;;;;;;;10.33;81.63;98215.09;5052028;28;20037;-46
2022/09/28 03:29:19;;;;;;;4.15;3.55;;;;;;;10.35;81.97;98208.06;5056524;28;20046;-45
2022/09/28 03:31:48;;;;;;;4.65;3.88;;;;;;;10.35;82.10;98204.63;5070824;28;20494;-45
2022/09/28 03:34:14;;;;;;;3.90;2.53;;;;;;;10.35;82.39;98205.47;5060345;28;20055;-44
2022/09/28 03:36:41;;;;;;;3.30;2.70;;;;;;;10.37;82.70;98200.16;5055302;28;20044;-45
2022/09/28 03:39:08;;;;;;;2.78;2.15;;;;;;;10.20;82.68;98175.19;5069556;28;20542;-46
2022/09/28 03:41:35;;;;;;;4.63;3.10;;;;;;;10.40;82.53;98200.00;5071203;28;20036;-46
2022/09/28 03:44:02;;;;;;;2.55;2.33;;;;;;;10.41;82.21;98189.53;5070498;28;20104;-46
2022/09/28 03:46:29;;;;;;;4.45;3.97;;;;;;;10.41;82.44;98191.31;5071374;28;20044;-44
2022/09/28 03:48:59;;;;;;;5.03;3.70;;;;;;;10.43;82.48;98190.28;5051964;28;20056;-44
2022/09/28 03:51:27;;;;;;;4.88;4.07;;;;;;;10.47;82.03;98183.13;5051476;28;20045;-44
2022/09/28 03:53:53;;;;;;;5.45;4.10;;;;;;;10.48;81.97;98172.66;5051667;28;20043;-47
2022/09/28 03:56:19;;;;;;;9.10;5.80;;;;;;;10.48;82.20;98177.00;5034840;28;20119;-45
2022/09/28 03:58:45;;;;;;;8.35;7.50;;;;;;;10.47;82.41;98163.19;5052054;28;20181;-49
2022/09/28 04:01:14;;;;;;;8.25;7.18;;;;;;;10.48;81.79;98158.81;5034618;28;20044;-47
2022/09/28 04:03:41;;;;;;;7.15;6.40;;;;;;;10.49;81.60;98160.50;5051412;28;20113;-50
2022/09/28 04:06:07;;;;;;;8.40;6.10;;;;;;;10.21;82.22;98106.72;5069430;28;20051;-46
2022/09/28 04:08:34;;;;;;;8.00;6.65;;;;;;;10.49;82.10;98152.72;5054745;28;20036;-46
2022/09/28 04:11:00;;;;;;;6.38;5.13;;;;;;;10.49;82.04;98163.09;5051885;28;20169;-45
2022/09/28 04:13:27;;;;;;;6.35;5.45;;;;;;;10.48;81.82;98154.47;5042092;28;20557;-47
2022/09/28 04:15:55;;;;;;;7.47;5.68;;;;;;;10.50;81.93;98146.59;5069151;28;20134;-47
2022/09/28 04:18:21;;;;;;;9.07;6.90;;;;;;;10.51;81.61;98148.28;5051332;28;20571;-45
2022/09/28 04:21:10;;;;;;;7.55;6.05;;;;;;;10.51;82.24;98148.28;5051281;28;20132;-48
2022/09/28 04:23:51;;;;;;;8.25;5.80;;;;;;;10.34;81.86;98110.28;5051118;28;20115;-48
2022/09/28 04:26:22;;;;;;;12.30;6.63;;;;;;;10.52;81.73;98135.16;5051180;28;20047;-47
2022/09/28 04:31:41;;;;;;;11.52;7.82;;;;;;;10.36;81.80;98103.25;5071089;28;20507;-44
2022/09/28 04:34:08;;;;;;;10.50;7.80;;;;;;;10.52;82.26;98131.75;5057267;28;20072;-45
2022/09/28 04:36:33;;;;;;;13.23;6.80;;;;;;;10.51;81.65;98127.47;5069606;28;20078;-45
2022/09/28 04:38:59;;;;;;;11.35;7.65;;;;;;;10.51;81.51;98123.13;5067593;28;20068;-46
2022/09/28 04:41:27;;;;;;;12.90;8.05;;;;;;;10.56;81.80;98125.44;5074052;28;20507;-47
2022/09/28 04:43:53;;;;;;;7.60;4.85;;;;;;;10.58;81.64;98123.56;5067011;28;20052;-46
2022/09/28 04:46:19;;;;;;;7.47;5.82;;;;;;;10.61;81.37;98123.41;5065026;28;20040;-47
2022/09/28 04:49:03;;;;;;;12.25;6.13;;;;;;;10.62;81.59;98119.91;5091161;28;20059;-46
2022/09/28 04:51:43;;;;;;;9.02;5.30;;;;;;;10.60;81.50;98125.19;5074593;28;20105;-47
2022/09/28 04:54:09;;;;;;;6.22;4.18;;;;;;;10.66;81.32;98118.78;5092806;28;20052;-48
2022/09/28 04:56:35;;;;;;;8.90;6.35;;;;;;;10.68;81.36;98127.31;5091810;28;20048;-46
2022/09/28 04:59:01;;;;;;;10.32;7.03;;;;;;;10.42;81.21;98083.84;5063600;28;20048;-47
2022/09/28 05:01:28;;;;;;;7.68;4.53;;;;;;;10.72;81.07;98118.41;5074471;28;20134;-49
2022/09/28 05:03:57;;;;;;;4.40;3.88;;;;;;;10.78;81.04;98123.22;5086107;28;20094;-50
2022/09/28 05:06:46;;;;;;;4.03;3.55;;;;;;;10.81;80.59;98117.84;5038657;28;20474;-46
2022/09/28 05:09:12;;;;;;;6.82;4.20;;;;;;;10.83;80.39;98125.56;5064546;28;20128;-46
2022/09/28 05:11:38;;;;;;;4.78;3.42;;;;;;;10.87;81.03;98117.50;5073277;28;20089;-45
2022/09/28 05:14:11;;;;;;;7.28;4.05;;;;;;;10.91;80.66;98115.53;5074122;28;20066;-49
2022/09/28 05:16:38;;;;;;;6.68;4.18;;;;;;;10.93;80.13;98111.09;5073863;28;20052;-48
2022/09/28 05:19:22;;;;;;;4.57;3.05;;;;;;;10.99;80.26;98105.50;5064194;28;20040;-46
2022/09/28 05:21:50;;;;;;;5.43;3.13;;;;;;;11.01;79.95;98098.44;5053340;28;20048;-45
2022/09/28 05:24:16;;;;;;;9.35;5.63;;;;;;;10.94;80.32;98086.72;5053467;28;20063;-49
2022/09/28 05:26:48;;;;;;;8.40;3.97;;;;;;;11.05;80.02;98100.75;5053698;28;20051;-48
2022/09/28 05:29:14;;;;;;;7.72;6.45;;;;;;;11.10;79.78;98100.47;5064243;28;20048;-48
2022/09/28 05:32:00;;;;;;;3.97;3.30;;;;;;;11.07;80.04;98090.25;5073808;28;20036;-49
2022/09/28 05:34:42;;;;;;;6.07;4.45;;;;;;;10.85;79.62;98054.34;5069540;28;20568;-45
2022/09/28 05:37:12;;;;;;;10.30;8.18;;;;;;;11.16;79.60;98092.28;5073804;28;20400;-47
2022/09/28 05:39:38;;;;;;;11.55;9.07;;;;;;;11.18;79.30;98097.41;5068602;28;20130;-45
2022/09/28 05:42:03;;;;;;;8.02;4.75;;;;;;;11.20;80.01;98100.75;5091322;28;20043;-47
2022/09/28 05:44:29;;;;;;;4.35;3.67;;;;;;;11.22;79.50;98096.28;5058338;28;20044;-48
2022/09/28 05:46:55;;;;;;;5.75;3.72;;;;;;;11.07;79.76;98059.06;5053179;28;20080;-47
2022/09/28 05:49:22;;;;;;;5.18;3.47;;;;;;;11.30;79.93;98094.06;5064275;28;20052;-48
2022/09/28 05:51:47;;;;;;;9.52;4.28;;;;;;;11.35;79.38;98089.38;5055072;28;20512;-46
2022/09/28 05:54:14;;;;;;;7.50;4.63;;;;;;;11.40;79.79;98089.94;5053716;28;20049;-46
2022/09/28 05:56:43;;;;;;;7.70;4.53;;;;;;;11.43;79.81;98085.38;5053247;28;20478;-50
2022/09/28 05:59:10;;;;;;;6.75;4.53;;;;;;;11.50;79.31;98078.00;5063065;28;20050;-47
2022/09/28 06:01:36;;;;;;;6.32;4.57;;;;;;;11.53;79.23;98080.41;5061115;28;20051;-47
2022/09/28 06:04:07;;;;;;;8.85;4.90;;;;;;;11.61;79.19;98072.13;5039662;28;20074;-44
2022/09/28 06:06:34;;;;;;;4.82;3.28;;;;;;;11.44;79.47;98048.00;5069233;28;20405;-47
2022/09/28 06:09:00;;;;;;;5.50;3.20;;;;;;;11.62;79.70;98079.81;5073226;28;20097;-45
2022/09/28 06:11:58;;;;;;;4.20;3.30;;;;;;;11.61;80.09;98069.53;5054780;28;20045;-44
2022/09/28 06:14:47;;;;;;;3.25;2.05;;;;;;;11.62;79.99;98073.78;5047572;28;20048;-44
2022/09/28 06:17:13;;;;;;;2.78;2.00;;;;;;;11.62;79.96;98073.78;5038100;28;20173;-54
2022/09/28 06:19:39;;;;;;;2.42;2.08;;;;;;;11.60;80.06;98066.09;5072697;28;20040;-46
2022/09/28 06:22:05;;;;;;;5.10;3.28;;;;;;;11.61;80.60;98061.72;5072597;28;20093;-50
2022/09/28 06:24:34;;;;;;;11.23;3.80;;;;;;;11.51;80.07;98032.00;5072559;28;20039;-50
2022/09/28 06:27:00;;;;;;;6.13;3.67;;;;;;;11.65;79.93;98053.59;5057970;28;20048;-49
2022/09/28 06:29:28;;;;;;;2.92;2.60;;;;;;;11.69;79.93;98057.66;5058907;28;20080;-53
2022/09/28 06:31:54;;;;;;;4.18;2.60;;;;;;;11.73;79.54;98066.13;5053471;28;20093;-47
2022/09/28 06:34:20;;;;;;;3.45;2.42;;;;;;;11.75;79.62;98067.72;5057165;28;20139;-45
2022/09/28 06:36:47;;;;;;;4.82;2.58;;;;;;;11.77;79.26;98067.63;5059031;28;20127;-46
2022/09/28 06:39:13;;;;;;;5.47;2.60;;;;;;;11.77;79.16;98072.84;5060731;28;20426;-45
2022/09/28 06:41:40;;;;;;;4.75;2.38;;;;;;;11.78;79.07;98064.91;5055035;28;20132;-48
2022/09/28 06:44:14;;;;;;;4.97;3.13;;;;;;;11.74;79.13;98066.03;5043616;28;20051;-46
2022/09/28 06:46:58;;;;;;;6.13;2.42;;;;;;;11.69;79.50;98070.69;5078765;28;20028;-48
2022/09/28 06:49:47;;;;;;;2.90;2.03;;;;;;;11.46;79.21;98051.31;5042013;28;20052;-47
2022/09/28 06:52:42;;;;;;;4.75;1.92;;;;;;;11.54;79.65;98068.22;5019153;28;20046;-46
2022/09/28 06:55:42;;;;;;;3.90;2.13;;;;;;;11.51;79.89;98061.47;5066802;28;20218;-45
2022/09/28 06:58:13;;;;;;;10.48;6.03;;;;;;;11.28;80.15;98030.88;5060325;28;20048;-45
2022/09/28 07:00:40;;;;;;;4.22;1.83;;;;;;;11.50;80.14;98062.41;5027684;28;20047;-46
2022/09/28 07:03:11;;;;;;;4.03;2.00;;;;;;;11.54;80.41;98065.63;5055962;28;20044;-48
2022/09/28 07:05:56;;;;;;;5.68;2.13;;;;;;;11.55;80.19;98056.91;5058905;28;20075;-51
2022/09/28 07:08:40;;;;;;;11.25;5.40;;;;;;;11.56;79.98;98064.63;5054135;28;20044;-48
2022/09/28 07:11:38;;;;;;;12.30;3.00;;;;;;;11.61;79.74;98062.56;5079599;28;20040;-50
2022/09/28 07:14:25;;;;;;;6.00;2.97;;;;;;;11.65;79.65;98057.97;5063566;28;20051;-48
2022/09/28 07:16:54;;;;;;;3.70;1.98;;;;;;;11.68;80.00;98042.97;5059274;28;20055;-53
2022/09/28 07:19:20;;;;;;;3.58;2.30;;;;;;;11.75;79.32;98046.06;5057356;28;20051;-49
2022/09/28 07:21:46;;;;;;;3.25;2.13;;;;;;;11.79;79.77;98052.72;5079110;28;20045;-47
2022/09/28 07:24:13;;;;;;;5.78;2.08;;;;;;;11.69;79.57;98017.78;5077728;28;20055;-49
2022/09/28 07:26:57;;;;;;;8.35;2.30;;;;;;;11.89;78.92;98035.56;5076820;28;20474;-46
2022/09/28 07:29:43;;;;;;;4.68;3.08;;;;;;;11.98;78.61;98044.56;5040427;28;20076;-45
2022/09/28 07:32:33;;;;;;;3.90;2.77;;;;;;;11.89;78.35;98027.75;5035990;28;20415;-46
2022/09/28 07:35:17;;;;;;;2.78;2.15;;;;;;;12.09;77.98;98049.91;5061698;28;20278;-47
2022/09/28 07:38:00;;;;;;;4.82;2.75;;;;;;;12.15;77.93;98047.69;5063577;28;20128;-46
2022/09/28 07:43:19;;;;;;;4.50;2.00;;;;;;;12.07;76.95;98028.31;5073199;28;20523;-46
2022/09/28 07:45:48;;;;;;;5.93;2.95;;;;;;;12.27;77.30;98054.69;5044314;28;20484;-48
2022/09/28 07:48:15;;;;;;;2.88;1.75;;;;;;;12.31;76.70;98050.94;5034305;28;20040;-48
2022/09/28 07:50:59;;;;;;;7.07;3.90;;;;;;;12.35;76.55;98049.00;5077687;28;20469;-48
2022/09/28 07:53:34;;;;;;;4.07;2.33;;;;;;;12.40;76.37;98054.72;5058099;28;20579;-47
2022/09/28 07:56:20;;;;;;;4.55;2.50;;;;;;;12.43;76.03;98038.03;5058667;28;20094;-46
2022/09/28 07:59:21;;;;;;;2.78;1.80;;;;;;;12.43;76.21;98038.03;5026826;28;20049;-47
2022/09/28 08:02:11;;;;;;;5.03;1.65;;;;;;;12.47;75.78;98037.72;5066340;28;20580;-44
2022/09/28 08:04:38;;;;;;;2.38;1.83;;;;;;;12.48;75.66;98034.16;5069152;28;20064;-46
2022/09/28 08:07:11;;;;;;;4.47;1.98;;;;;;;12.38;75.68;98014.88;5036874;28;20044;-45
2022/09/28 08:09:38;;;;;;;5.03;1.95;;;;;;;12.57;75.16;98025.72;5050527;28;20040;-56
2022/09/28 08:12:18;;;;;;;4.07;1.92;;;;;;;12.63;75.40;98025.28;5081231;28;20058;-49
2022/09/28 08:14:59;;;;;;;5.43;2.20;;;;;;;12.69;75.16;98026.66;5069591;28;20038;-48
2022/09/28 08:17:45;;;;;;;5.18;1.80;;;;;;;12.72;74.80;98024.66;5076254;28;20052;-49
2022/09/28 08:23:04;;;;;;;3.03;1.50;;;;;;;12.67;74.69;97999.84;5068678;28;20512;-47
2022/09/28 08:25:31;;;;;;;3.92;1.80;;;;;;;12.84;74.41;98027.34;5050821;28;20036;-49
2022/09/28 08:28:00;;;;;;;4.55;1.60;;;;;;;12.88;74.40;98023.56;5050628;28;20097;-48
2022/09/28 08:30:27;;;;;;;9.10;2.33;;;;;;;12.93;73.95;98031.91;5057762;28;20043;-49
2022/09/28 08:33:12;;;;;;;8.10;1.52;;;;;;;12.76;73.87;98009.66;5082003;28;20044;-49
2022/09/28 08:35:41;;;;;;;6.80;4.80;;;;;;;12.84;73.90;98017.75;5079539;28;20039;-47
2022/09/28 08:38:17;;;;;;;5.22;3.13;;;;;;;12.84;73.57;98003.88;5069297;28;20040;-49
2022/09/28 08:41:24;;;;;;;8.07;4.30;;;;;;;12.92;73.63;98020.66;5071983;28;20158;-47
2022/09/28 08:44:23;;;;;;;5.32;2.60;;;;;;;12.93;73.62;98022.31;5038980;28;20087;-48
2022/09/28 08:50:32;;;;;;;3.85;2.22;;;;;;;12.99;73.67;98021.88;5019227;28;20432;-48
2022/09/28 08:53:10;;;;;;;5.65;3.55;;;;;;;13.02;73.68;98019.09;5045855;28;20144;-44
2022/09/28 08:56:05;;;;;;;5.63;1.95;;;;;;;13.02;73.81;98010.41;5030117;28;20126;-48
2022/09/28 08:58:34;;;;;;;4.73;2.00;;;;;;;12.91;73.94;97999.91;5044064;28;20045;-45
2022/09/28 09:01:01;;;;;;;2.08;1.60;;;;;;;13.03;73.92;98012.09;5026633;28;20304;-45
2022/09/28 09:03:33;;;;;;;2.58;1.38;;;;;;;13.09;73.68;98011.63;5030639;28;20064;-50
2022/09/28 09:06:20;;;;;;;5.28;1.40;;;;;;;13.12;73.40;98012.28;5031946;28;20037;-46
2022/09/28 09:09:29;;;;;;;3.28;1.70;;;;;;;13.20;73.10;98011.72;5041593;28;20049;-45
2022/09/28 09:12:31;;;;;;;4.63;1.88;;;;;;;13.25;72.68;98020.06;5027902;28;20046;-45
2022/09/28 09:15:10;;;;;;;4.03;1.90;;;;;;;13.26;72.70;98015.69;5027357;28;20037;-48
2022/09/28 09:17:58;;;;;;;5.95;2.28;;;;;;;13.24;72.84;98009.75;5043804;28;20128;-50
2022/09/28 09:20:55;;;;;;;2.70;1.55;;;;;;;13.26;72.80;98019.13;5027037;28;20044;-46
2022/09/28 09:23:55;;;;;;;4.50;2.67;;;;;;;13.30;72.56;98019.72;4997124;28;20564;-52
2022/09/28 09:26:34;;;;;;;4.43;2.17;;;;;;;13.41;72.48;98014.56;5030136;28;20052;-48
2022/09/28 09:29:00;;;;;;;3.10;1.90;;;;;;;13.54;71.98;98010.97;5030447;28;20501;-48
2022/09/28 09:32:01;;;;;;;4.80;2.28;;;;;;;13.58;71.72;98012.41;5030218;28;20037;-50
2022/09/28 09:34:43;;;;;;;5.35;2.85;;;;;;;13.56;71.65;98018.69;5026482;28;20044;-50
2022/09/28 09:37:29;;;;;;;;;;;;;;;13.49;71.79;98009.66;5045239;28;20094;-45
2022/09/28 09:40:26;;;;;;;7.47;2.65;;;;;;;13.40;71.79;98008.53;5036004;28;19917;-48
2022/09/28 09:43:23;;;;;;;5.63;2.85;;;;;;;13.35;72.05;98018.47;5031919;28;20054;-47
2022/09/28 09:46:17;;;;;;;5.55;2.72;;;;;;;13.33;72.51;98009.09;5015937;28;20053;-50
2022/09/28 09:49:21;;;;;;;5.47;2.60;;;;;;;13.33;72.39;98024.75;5034348;28;20057;-48
2022/09/28 09:51:50;;;;;;;6.18;2.42;;;;;;;13.37;72.28;98019.19;5027298;28;20099;-52
2022/09/28 09:54:47;;;;;;;7.15;2.50;;;;;;;13.38;72.31;98025.25;5030099;28;20411;-50
2022/09/28 09:57:31;;;;;;;4.57;2.50;;;;;;;13.41;72.33;98022.41;5030851;28;20052;-50
2022/09/28 10:00:13;;;;;;;6.25;2.72;;;;;;;13.43;72.43;98017.91;4998231;28;20433;-52
2022/09/28 10:02:59;;;;;;;4.20;2.80;;;;;;;13.44;72.32;98020.44;5030032;28;20191;-53
2022/09/28 10:05:37;;;;;;;9.13;5.38;;;;;;;13.45;72.18;98016.03;4999975;28;20136;-53
2022/09/28 10:08:12;;;;;;;6.53;2.63;;;;;;;13.48;72.16;98024.47;5049916;28;20140;-49
2022/09/28 10:10:52;;;;;;;5.57;2.30;;;;;;;13.44;72.01;98019.59;5044235;28;20074;-46
2022/09/28 10:13:19;;;;;;;4.07;2.30;;;;;;;13.38;72.13;98025.25;5047366;28;20057;-52
2022/09/28 10:15:46;;;;;;;5.45;2.55;;;;;;;13.32;72.89;98018.69;5049435;28;20049;-47
2022/09/28 10:18:22;;;;;;;4.18;2.13;;;;;;;13.29;73.04;98020.69;5049342;28;20044;-52
2022/09/28 10:21:12;;;;;;;5.30;2.20;;;;;;;13.24;73.33;98021.00;5046014;28;20037;-47
2022/09/28 10:24:01;;;;;;;4.55;2.38;;;;;;;12.92;73.36;97976.34;5031520;28;20132;-48
2022/09/28 10:26:34;;;;;;;9.98;4.70;;;;;;;13.15;73.74;98022.50;5029129;28;20051;-51
2022/09/28 10:29:13;;;;;;;5.10;2.20;;;;;;;13.13;73.90;98021.78;5012762;28;20041;-53
2022/09/28 10:31:40;;;;;;;5.22;3.05;;;;;;;13.11;74.25;98033.22;5012910;28;20473;-49
2022/09/28 10:34:28;;;;;;;6.15;3.28;;;;;;;12.96;74.38;98005.63;5036893;28;20106;-50
2022/09/28 10:37:04;;;;;;;6.03;3.25;;;;;;;13.12;74.28;98024.50;5028859;28;20055;-48
2022/09/28 10:46:05;;;;;;;6.70;3.38;;;;;;;12.88;73.31;98023.56;5066255;28;20420;-42
2022/09/28 10:48:38;;;;;;;6.78;3.67;;;;;;;12.87;74.46;98028.00;5064671;28;20049;-47
2022/09/28 10:51:06;;;;;;;5.50;3.50;;;;;;;12.77;74.68;98000.84;5065747;28;20041;-47
2022/09/28 10:53:36;;;;;;;6.90;3.10;;;;;;;12.96;75.03;98023.88;5047930;28;20055;-49
2022/09/28 10:56:03;;;;;;;;;;;;;;;12.99;74.79;98016.66;5065231;28;20037;-46
2022/09/28 10:58:40;;;;;;;5.35;3.35;;;;;;;13.01;74.91;98009.59;5066062;28;19916;-46
2022/09/28 11:01:13;;;;;;;6.57;3.40;;;;;;;13.06;75.03;98012.69;5064573;28;20047;-46
2022/09/28 11:04:14;;;;;;;8.70;3.93;;;;;;;13.08;74.87;98012.59;5064356;28;20044;-48
2022/09/28 11:06:40;;;;;;;5.90;3.60;;;;;;;13.12;74.68;98016.69;5048553;28;20353;-47
2022/09/28 11:09:28;;;;;;;6.60;3.13;;;;;;;13.16;74.59;98012.91;5048110;28;20048;-49
2022/09/28 11:12:00;;;;;;;6.85;4.05;;;;;;;13.17;74.57;98009.34;5060274;28;20290;-48
2022/09/28 11:14:28;;;;;;;9.00;3.80;;;;;;;13.21;74.51;98009.97;5063743;28;20032;-49
2022/09/28 11:17:42;;;;;;;7.20;3.60;;;;;;;13.30;74.15;98015.34;5064352;28;20436;-46
2022/09/28 11:20:24;;;;;;;6.05;2.92;;;;;;;13.39;73.69;98017.31;5042350;28;20052;-46
2022/09/28 11:22:55;;;;;;;7.28;3.40;;;;;;;13.46;73.16;98021.13;5040168;28;20074;-45
2022/09/28 11:25:27;;;;;;;5.07;3.10;;;;;;;13.57;73.11;98030.78;5028028;28;20128;-51
2022/09/28 11:27:53;;;;;;;4.90;2.80;;;;;;;13.54;72.69;98031.88;5044212;28;20084;-50
2022/09/28 11:30:31;;;;;;;5.55;3.30;;;;;;;13.55;72.50;98025.69;5063404;28;20365;-45
2022/09/28 11:33:32;;;;;;;7.82;3.40;;;;;;;13.62;72.21;98022.63;5009592;28;20148;-44
2022/09/28 11:36:35;;;;;;;5.32;2.83;;;;;;;13.66;72.27;98026.69;5009790;28;20041;-50
2022/09/28 11:39:11;;;;;;;6.63;3.10;;;;;;;13.65;71.84;98025.03;5021687;28;20107;-46
2022/09/28 11:41:54;;;;;;;7.07;3.72;;;;;;;13.58;72.11;98033.31;5007500;28;20053;-46
2022/09/28 11:44:27;;;;;;;8.88;3.33;;;;;;;13.50;72.25;98027.78;4989384;28;20560;-49
2022/09/28 11:47:18;;;;;;;9.38;4.13;;;;;;;13.49;72.33;98026.16;5022322;28;20052;-48
2022/09/28 11:49:51;;;;;;;9.32;3.35;;;;;;;13.41;72.31;98014.56;4989964;28;20048;-49
2022/09/28 11:52:27;;;;;;;9.35;4.10;;;;;;;13.32;72.01;98003.03;5006026;28;20156;-47
2022/09/28 11:54:58;;;;;;;11.60;3.70;;;;;;;13.45;72.05;98024.69;5022609;28;20541;-47
2022/09/28 11:57:26;;;;;;;7.30;3.20;;;;;;;13.46;72.18;98030.72;4977028;28;20050;-45
2022/09/28 12:00:07;;;;;;;5.95;3.60;;;;;;;13.44;72.19;98024.81;4993249;28;20044;-46
2022/09/28 12:02:49;;;;;;;4.72;3.15;;;;;;;13.38;72.23;98020.88;4994116;28;20041;-44
2022/09/28 12:05:17;;;;;;;4.10;3.22;;;;;;;13.32;72.21;98026.53;4992633;28;20138;-46
2022/09/28 12:07:46;;;;;;;5.32;2.28;;;;;;;13.18;71.81;98018.03;4993016;28;20073;-46
2022/09/28 12:10:40;;;;;;;5.10;2.60;;;;;;;13.14;71.79;98025.22;5020189;28;20055;-47
2022/09/28 12:13:10;;;;;;;4.07;2.15;;;;;;;13.04;71.68;98032.00;5033465;28;20095;-47
2022/09/28 12:15:52;;;;;;;5.68;2.47;;;;;;;13.01;71.95;98038.28;5049821;28;20032;-48
2022/09/28 12:18:54;;;;;;;5.40;2.90;;;;;;;12.99;71.96;98034.09;5050072;28;20036;-48
2022/09/28 12:21:24;;;;;;;3.63;2.80;;;;;;;12.95;71.82;98041.31;5049243;28;20068;-46
2022/09/28 12:23:53;;;;;;;;;;;;;;;12.98;71.85;98033.25;5051064;28;20033;-45
2022/09/28 12:26:32;;;;;;;6.53;2.90;;;;;;;12.94;72.07;98038.81;5033401;28;20362;-45
2022/09/28 12:29:00;;;;;;;4.45;2.67;;;;;;;12.92;72.23;98045.91;5049318;28;20032;-46
2022/09/28 12:31:33;;;;;;;4.05;2.63;;;;;;;12.87;72.19;98032.38;5030396;28;20038;-46